createdAt,value
2018-04-17T00:00:28.765Z,21.68
2018-04-17T00:01:00.426Z,21.67
2018-04-17T00:01:32.016Z,21.55
2018-04-17T00:02:03.611Z,21.64
2018-04-17T00:02:35.213Z,21.63
2018-04-17T00:03:06.797Z,21.62
2018-04-17T00:03:38.407Z,21.63
2018-04-17T00:04:10.019Z,21.62
2018-04-17T00:04:41.607Z,21.61
2018-04-17T00:05:13.183Z,21.61
2018-04-17T00:05:44.764Z,21.62
2018-04-17T00:06:16.426Z,21.61
2018-04-17T00:06:48.027Z,21.62
2018-04-17T00:07:19.639Z,21.61
2018-04-17T00:07:51.257Z,21.61
2018-04-17T00:08:22.870Z,21.58
2018-04-17T00:08:54.467Z,21.60
2018-04-17T00:09:26.070Z,21.59
2018-04-17T00:09:57.660Z,21.59
2018-04-17T00:10:29.247Z,21.58
2018-04-17T00:11:00.840Z,21.58
2018-04-17T00:11:32.433Z,21.58
2018-04-17T00:12:04.027Z,21.57
2018-04-17T00:12:35.614Z,21.57
2018-04-17T00:13:07.199Z,21.56
2018-04-17T00:13:38.863Z,21.57
2018-04-17T00:14:10.434Z,21.57
2018-04-17T00:14:42.051Z,21.57
2018-04-17T00:15:13.629Z,21.58
2018-04-17T00:15:45.248Z,21.57
2018-04-17T00:16:16.857Z,21.57
2018-04-17T00:16:48.506Z,21.54
2018-04-17T00:17:20.081Z,21.56
2018-04-17T00:17:51.678Z,21.57
2018-04-17T00:18:23.277Z,21.56
2018-04-17T00:18:54.874Z,21.57
2018-04-17T00:19:26.453Z,21.54
2018-04-17T00:19:58.039Z,21.58
2018-04-17T00:20:29.622Z,21.58
2018-04-17T00:21:01.221Z,21.54
2018-04-17T00:21:32.841Z,21.57
2018-04-17T00:22:04.504Z,21.57
2018-04-17T00:22:36.119Z,21.55
2018-04-17T00:23:07.734Z,21.57
2018-04-17T00:23:39.327Z,21.55
2018-04-17T00:24:10.924Z,21.56
2018-04-17T00:24:42.515Z,21.55
2018-04-17T00:25:14.126Z,21.56
2018-04-17T00:25:45.729Z,21.56
2018-04-17T00:26:17.331Z,21.54
2018-04-17T00:26:48.943Z,21.54
2018-04-17T00:27:20.615Z,21.54
2018-04-17T00:27:52.207Z,21.53
2018-04-17T00:28:23.794Z,21.53
2018-04-17T00:28:55.377Z,21.53
2018-04-17T00:29:26.995Z,21.53
2018-04-17T00:29:58.572Z,21.54
2018-04-17T00:30:30.160Z,21.54
2018-04-17T00:31:01.746Z,21.54
2018-04-17T00:31:33.336Z,21.37
2018-04-17T00:32:04.942Z,21.52
2018-04-17T00:32:36.604Z,21.52
2018-04-17T00:33:08.189Z,21.53
2018-04-17T00:33:39.803Z,21.52
2018-04-17T00:34:11.395Z,21.50
2018-04-17T00:34:42.969Z,21.52
2018-04-17T00:35:14.555Z,21.50
2018-04-17T00:35:46.146Z,21.51
2018-04-17T00:36:17.734Z,21.51
2018-04-17T00:36:49.332Z,21.50
2018-04-17T00:37:20.923Z,21.49
2018-04-17T00:37:52.595Z,21.53
2018-04-17T00:38:24.210Z,21.54
2018-04-17T00:38:55.823Z,21.56
2018-04-17T00:39:27.405Z,21.55
2018-04-17T00:39:59.014Z,21.57
2018-04-17T00:40:30.607Z,21.55
2018-04-17T00:41:02.209Z,21.57
2018-04-17T00:41:33.802Z,21.57
2018-04-17T00:42:05.414Z,21.55
2018-04-17T00:42:37.007Z,21.55
2018-04-17T00:43:08.655Z,21.57
2018-04-17T00:43:40.257Z,21.55
2018-04-17T00:44:11.837Z,21.55
2018-04-17T00:44:43.413Z,21.55
2018-04-17T00:45:15.023Z,21.54
2018-04-17T00:45:46.643Z,21.54
2018-04-17T00:46:18.258Z,21.54
2018-04-17T00:46:49.851Z,21.53
2018-04-17T00:47:21.450Z,21.55
2018-04-17T00:47:53.052Z,21.58
2018-04-17T00:48:24.666Z,21.59
2018-04-17T00:48:56.283Z,21.58
2018-04-17T00:49:27.899Z,21.58
2018-04-17T00:49:59.514Z,21.57
2018-04-17T00:50:31.127Z,21.56
2018-04-17T00:51:02.728Z,21.55
2018-04-17T00:51:34.318Z,21.55
2018-04-17T00:52:05.906Z,21.54
2018-04-17T00:52:37.505Z,21.52
2018-04-17T00:53:09.109Z,21.52
2018-04-17T00:53:40.723Z,21.52
2018-04-17T00:54:12.321Z,21.52
2018-04-17T00:54:43.901Z,21.52
2018-04-17T00:55:15.477Z,21.52
2018-04-17T00:55:47.090Z,21.52
2018-04-17T00:56:18.679Z,21.51
2018-04-17T00:56:50.320Z,21.51
2018-04-17T00:57:21.871Z,21.50
2018-04-17T00:57:53.459Z,21.50
2018-04-17T00:58:25.047Z,21.49
2018-04-17T00:58:56.682Z,21.50
2018-04-17T00:59:28.264Z,21.50
2018-04-17T00:59:59.866Z,21.50
2018-04-17T01:00:31.459Z,21.51
2018-04-17T01:01:03.074Z,21.50
2018-04-17T01:01:34.686Z,21.50
2018-04-17T01:02:06.283Z,21.50
2018-04-17T01:02:37.895Z,21.49
2018-04-17T01:03:09.486Z,21.47
2018-04-17T01:03:41.061Z,21.48
2018-04-17T01:04:12.716Z,21.49
2018-04-17T01:04:44.330Z,21.47
2018-04-17T01:05:15.930Z,21.48
2018-04-17T01:05:47.537Z,21.49
2018-04-17T01:06:19.155Z,21.49
2018-04-17T01:06:50.747Z,21.48
2018-04-17T01:07:22.338Z,21.48
2018-04-17T01:07:53.959Z,21.48
2018-04-17T01:08:25.551Z,21.46
2018-04-17T01:08:57.141Z,21.47
2018-04-17T01:09:28.778Z,21.47
2018-04-17T01:10:00.374Z,21.48
2018-04-17T01:10:31.963Z,21.47
2018-04-17T01:11:03.560Z,21.46
2018-04-17T01:11:35.177Z,21.45
2018-04-17T01:12:06.780Z,21.45
2018-04-17T01:12:38.361Z,21.45
2018-04-17T01:13:09.954Z,21.45
2018-04-17T01:13:41.537Z,21.45
2018-04-17T01:14:13.116Z,21.45
2018-04-17T01:14:44.791Z,21.46
2018-04-17T01:15:16.370Z,21.46
2018-04-17T01:15:47.945Z,21.46
2018-04-17T01:16:19.521Z,21.47
2018-04-17T01:16:51.122Z,21.45
2018-04-17T01:17:22.735Z,21.44
2018-04-17T01:17:54.326Z,21.46
2018-04-17T01:18:25.909Z,21.44
2018-04-17T01:18:57.509Z,21.45
2018-04-17T01:19:29.103Z,21.44
2018-04-17T01:20:00.757Z,21.44
2018-04-17T01:20:32.347Z,21.44
2018-04-17T01:21:03.949Z,21.45
2018-04-17T01:21:35.574Z,21.45
2018-04-17T01:22:07.180Z,21.46
2018-04-17T01:22:38.775Z,21.46
2018-04-17T01:23:10.363Z,21.46
2018-04-17T01:23:41.946Z,21.46
2018-04-17T01:24:13.521Z,21.44
2018-04-17T01:24:45.131Z,21.44
2018-04-17T01:25:16.808Z,21.44
2018-04-17T01:25:48.434Z,21.44
2018-04-17T01:26:20.031Z,21.44
2018-04-17T01:26:51.646Z,21.44
2018-04-17T01:27:23.236Z,21.42
2018-04-17T01:27:54.847Z,21.44
2018-04-17T01:28:26.429Z,21.43
2018-04-17T01:28:58.012Z,21.45
2018-04-17T01:29:29.622Z,21.46
2018-04-17T01:30:01.240Z,21.47
2018-04-17T01:30:32.830Z,21.47
2018-04-17T01:31:04.439Z,21.46
2018-04-17T01:31:36.022Z,21.48
2018-04-17T01:32:07.615Z,21.47
2018-04-17T01:32:39.193Z,21.45
2018-04-17T01:33:10.770Z,21.47
2018-04-17T01:33:42.369Z,21.48
2018-04-17T01:34:13.959Z,21.48
2018-04-17T01:34:45.546Z,21.47
2018-04-17T01:35:17.154Z,21.47
2018-04-17T01:35:48.811Z,21.47
2018-04-17T01:36:20.409Z,21.46
2018-04-17T01:36:51.999Z,21.35
2018-04-17T01:37:23.587Z,21.48
2018-04-17T01:37:55.161Z,21.49
2018-04-17T01:38:26.770Z,21.49
2018-04-17T01:38:58.383Z,21.48
2018-04-17T01:39:29.970Z,21.47
2018-04-17T01:40:01.560Z,21.48
2018-04-17T01:40:33.152Z,21.47
2018-04-17T01:41:04.816Z,21.47
2018-04-17T01:41:36.438Z,21.47
2018-04-17T01:42:08.062Z,21.48
2018-04-17T01:42:39.682Z,21.47
2018-04-17T01:43:11.274Z,21.47
2018-04-17T01:43:42.859Z,21.48
2018-04-17T01:44:14.460Z,21.48
2018-04-17T01:44:46.074Z,21.49
2018-04-17T01:45:17.670Z,21.47
2018-04-17T01:45:49.265Z,21.47
2018-04-17T01:46:20.933Z,21.46
2018-04-17T01:46:52.522Z,21.46
2018-04-17T01:47:24.130Z,21.46
2018-04-17T01:47:55.745Z,21.47
2018-04-17T01:48:27.362Z,21.45
2018-04-17T01:48:58.976Z,21.45
2018-04-17T01:49:30.570Z,21.47
2018-04-17T01:50:02.177Z,21.46
2018-04-17T01:50:33.802Z,21.45
2018-04-17T01:51:05.418Z,21.45
2018-04-17T01:51:37.089Z,21.45
2018-04-17T01:52:08.673Z,21.45
2018-04-17T01:52:40.267Z,21.45
2018-04-17T01:53:11.869Z,21.45
2018-04-17T01:53:43.487Z,21.44
2018-04-17T01:54:15.090Z,21.44
2018-04-17T01:54:46.683Z,21.42
2018-04-17T01:55:18.295Z,21.44
2018-04-17T01:55:49.911Z,21.44
2018-04-17T01:56:21.529Z,21.44
2018-04-17T01:56:53.182Z,21.45
2018-04-17T01:57:24.804Z,21.46
2018-04-17T01:57:56.416Z,21.47
2018-04-17T01:58:28.025Z,21.46
2018-04-17T01:58:59.674Z,21.46
2018-04-17T01:59:31.282Z,21.46
2018-04-17T02:00:02.876Z,21.46
2018-04-17T02:00:34.467Z,21.46
2018-04-17T02:01:06.045Z,21.46
2018-04-17T02:01:37.653Z,21.46
2018-04-17T02:02:09.317Z,21.46
2018-04-17T02:02:40.921Z,21.46
2018-04-17T02:03:13.539Z,21.47
2018-04-17T02:03:45.148Z,21.47
2018-04-17T02:04:16.756Z,21.45
2018-04-17T02:04:48.371Z,21.45
2018-04-17T02:05:19.986Z,21.45
2018-04-17T02:05:51.579Z,21.44
2018-04-17T02:06:23.188Z,21.45
2018-04-17T02:06:54.773Z,21.45
2018-04-17T02:07:26.375Z,21.44
2018-04-17T02:07:57.953Z,21.45
2018-04-17T02:08:29.564Z,21.46
2018-04-17T02:09:01.159Z,21.44
2018-04-17T02:09:32.761Z,21.44
2018-04-17T02:10:04.341Z,21.45
2018-04-17T02:10:35.917Z,21.44
2018-04-17T02:11:07.522Z,21.43
2018-04-17T02:11:39.109Z,21.43
2018-04-17T02:12:10.718Z,21.44
2018-04-17T02:12:42.362Z,21.43
2018-04-17T02:13:13.974Z,21.44
2018-04-17T02:13:45.591Z,21.44
2018-04-17T02:14:17.202Z,21.42
2018-04-17T02:14:48.782Z,21.41
2018-04-17T02:15:20.369Z,21.43
2018-04-17T02:15:51.979Z,21.44
2018-04-17T02:16:23.574Z,21.44
2018-04-17T02:16:55.159Z,21.43
2018-04-17T02:17:26.751Z,21.44
2018-04-17T02:17:58.418Z,21.43
2018-04-17T02:18:30.035Z,21.43
2018-04-17T02:19:01.613Z,21.45
2018-04-17T02:19:33.218Z,21.46
2018-04-17T02:20:04.809Z,21.47
2018-04-17T02:20:36.390Z,21.44
2018-04-17T02:21:07.989Z,21.46
2018-04-17T02:21:39.602Z,21.46
2018-04-17T02:22:11.202Z,21.47
2018-04-17T02:22:42.819Z,21.48
2018-04-17T02:23:14.463Z,21.47
2018-04-17T02:23:46.076Z,21.47
2018-04-17T02:24:17.661Z,21.45
2018-04-17T02:24:49.241Z,21.45
2018-04-17T02:25:20.840Z,21.46
2018-04-17T02:25:52.418Z,21.45
2018-04-17T02:26:24.012Z,21.46
2018-04-17T02:26:55.610Z,21.46
2018-04-17T02:27:27.214Z,21.47
2018-04-17T02:27:58.831Z,21.47
2018-04-17T02:28:30.461Z,21.47
2018-04-17T02:29:02.047Z,21.48
2018-04-17T02:29:33.630Z,21.47
2018-04-17T02:30:05.209Z,21.47
2018-04-17T02:30:36.785Z,21.46
2018-04-17T02:31:08.398Z,21.45
2018-04-17T02:31:40.015Z,21.44
2018-04-17T02:32:11.589Z,21.45
2018-04-17T02:32:43.201Z,21.45
2018-04-17T02:33:14.800Z,21.44
2018-04-17T02:33:46.650Z,21.44
2018-04-17T02:34:18.225Z,21.43
2018-04-17T02:34:49.811Z,21.43
2018-04-17T02:35:21.427Z,21.44
2018-04-17T02:35:53.030Z,21.44
2018-04-17T02:36:24.617Z,21.44
2018-04-17T02:36:56.207Z,21.44
2018-04-17T02:37:27.785Z,21.45
2018-04-17T02:37:59.386Z,21.43
2018-04-17T02:38:30.969Z,21.45
2018-04-17T02:39:02.607Z,21.46
2018-04-17T02:39:34.203Z,21.46
2018-04-17T02:40:05.805Z,21.45
2018-04-17T02:40:37.396Z,21.45
2018-04-17T02:41:08.987Z,21.46
2018-04-17T02:41:40.581Z,21.48
2018-04-17T02:42:12.157Z,21.49
2018-04-17T02:42:43.743Z,21.47
2018-04-17T02:43:15.327Z,21.47
2018-04-17T02:43:46.938Z,21.46
2018-04-17T02:44:18.560Z,21.47
2018-04-17T02:44:50.151Z,21.47
2018-04-17T02:45:21.762Z,21.47
2018-04-17T02:45:53.383Z,21.46
2018-04-17T02:46:24.998Z,21.44
2018-04-17T02:46:56.596Z,21.43
2018-04-17T02:47:28.185Z,21.43
2018-04-17T02:47:59.774Z,21.42
2018-04-17T02:48:31.383Z,21.42
2018-04-17T02:49:02.992Z,21.42
2018-04-17T02:49:34.626Z,21.43
2018-04-17T02:50:06.228Z,21.42
2018-04-17T02:50:37.828Z,21.41
2018-04-17T02:51:09.438Z,21.40
2018-04-17T02:51:41.025Z,21.40
2018-04-17T02:52:12.611Z,21.39
2018-04-17T02:52:44.227Z,21.39
2018-04-17T02:53:15.853Z,21.39
2018-04-17T02:53:47.461Z,21.41
2018-04-17T02:54:19.091Z,21.41
2018-04-17T02:54:50.753Z,21.42
2018-04-17T02:55:22.335Z,21.43
2018-04-17T02:55:53.914Z,21.45
2018-04-17T02:56:25.523Z,21.45
2018-04-17T02:56:57.138Z,21.45
2018-04-17T02:57:28.741Z,21.44
2018-04-17T02:58:00.355Z,21.44
2018-04-17T02:58:31.962Z,21.43
2018-04-17T02:59:03.574Z,21.43
2018-04-17T02:59:35.191Z,21.44
2018-04-17T03:00:06.825Z,21.45
2018-04-17T03:00:38.413Z,21.48
2018-04-17T03:01:09.998Z,21.48
2018-04-17T03:01:41.611Z,21.49
2018-04-17T03:02:13.228Z,21.49
2018-04-17T03:02:44.837Z,21.48
2018-04-17T03:03:16.454Z,21.49
2018-04-17T03:03:48.033Z,21.48
2018-04-17T03:04:19.623Z,21.47
2018-04-17T03:04:51.217Z,21.49
2018-04-17T03:05:22.896Z,21.50
2018-04-17T03:05:54.491Z,21.49
2018-04-17T03:06:26.111Z,21.47
2018-04-17T03:06:57.722Z,21.50
2018-04-17T03:07:29.325Z,21.49
2018-04-17T03:08:00.930Z,21.49
2018-04-17T03:08:32.550Z,21.49
2018-04-17T03:09:04.154Z,21.48
2018-04-17T03:09:35.743Z,21.48
2018-04-17T03:10:07.322Z,21.47
2018-04-17T03:10:38.962Z,21.47
2018-04-17T03:11:10.904Z,21.49
2018-04-17T03:11:42.515Z,21.49
2018-04-17T03:12:14.090Z,21.50
2018-04-17T03:12:45.678Z,21.50
2018-04-17T03:13:17.253Z,21.50
2018-04-17T03:13:48.842Z,21.51
2018-04-17T03:14:20.445Z,21.50
2018-04-17T03:14:52.037Z,21.50
2018-04-17T03:15:23.637Z,21.52
2018-04-17T03:15:55.307Z,21.51
2018-04-17T03:16:26.908Z,21.50
2018-04-17T03:16:58.522Z,21.49
2018-04-17T03:17:30.101Z,21.47
2018-04-17T03:18:01.715Z,21.46
2018-04-17T03:18:33.309Z,21.46
2018-04-17T03:19:04.899Z,21.45
2018-04-17T03:19:36.497Z,21.46
2018-04-17T03:20:08.113Z,21.46
2018-04-17T03:20:39.706Z,21.45
2018-04-17T03:21:11.788Z,21.46
2018-04-17T03:21:43.385Z,21.47
2018-04-17T03:22:14.995Z,21.47
2018-04-17T03:22:46.587Z,21.48
2018-04-17T03:23:18.189Z,21.46
2018-04-17T03:23:49.769Z,21.48
2018-04-17T03:24:21.345Z,21.48
2018-04-17T03:24:52.935Z,21.47
2018-04-17T03:25:24.523Z,21.46
2018-04-17T03:25:56.219Z,21.45
2018-04-17T03:26:27.913Z,21.42
2018-04-17T03:26:59.513Z,21.45
2018-04-17T03:27:31.126Z,21.45
2018-04-17T03:28:02.747Z,21.44
2018-04-17T03:28:34.333Z,21.44
2018-04-17T03:29:05.920Z,21.44
2018-04-17T03:29:37.537Z,21.43
2018-04-17T03:30:09.139Z,21.42
2018-04-17T03:30:40.758Z,21.43
2018-04-17T03:31:12.365Z,21.41
2018-04-17T03:31:44.047Z,21.41
2018-04-17T03:32:15.625Z,21.40
2018-04-17T03:32:47.215Z,21.39
2018-04-17T03:33:18.809Z,21.38
2018-04-17T03:33:50.402Z,21.39
2018-04-17T03:34:22.031Z,21.38
2018-04-17T03:34:53.622Z,21.37
2018-04-17T03:35:25.214Z,21.37
2018-04-17T03:35:56.803Z,21.38
2018-04-17T03:36:28.414Z,21.37
2018-04-17T03:37:00.055Z,21.37
2018-04-17T03:37:31.667Z,21.36
2018-04-17T03:38:03.258Z,21.37
2018-04-17T03:38:34.861Z,21.38
2018-04-17T03:39:06.449Z,21.41
2018-04-17T03:39:38.058Z,21.41
2018-04-17T03:40:09.671Z,21.39
2018-04-17T03:40:41.268Z,21.39
2018-04-17T03:41:12.852Z,21.41
2018-04-17T03:41:44.446Z,21.42
2018-04-17T03:42:16.111Z,21.41
2018-04-17T03:42:47.726Z,21.41
2018-04-17T03:43:19.340Z,21.41
2018-04-17T03:43:50.962Z,21.40
2018-04-17T03:44:22.548Z,21.41
2018-04-17T03:44:54.139Z,21.39
2018-04-17T03:45:25.730Z,21.39
2018-04-17T03:45:57.319Z,21.37
2018-04-17T03:46:28.907Z,21.40
2018-04-17T03:47:00.498Z,21.38
2018-04-17T03:47:32.121Z,21.38
2018-04-17T03:48:03.721Z,21.39
2018-04-17T03:48:35.311Z,21.38
2018-04-17T03:49:06.923Z,21.38
2018-04-17T03:49:38.534Z,21.29
2018-04-17T03:50:10.125Z,21.39
2018-04-17T03:50:41.702Z,21.36
2018-04-17T03:51:13.311Z,21.39
2018-04-17T03:51:44.923Z,21.38
2018-04-17T03:52:16.513Z,21.37
2018-04-17T03:52:48.148Z,21.37
2018-04-17T03:53:19.739Z,21.37
2018-04-17T03:53:51.317Z,21.36
2018-04-17T03:54:22.893Z,21.33
2018-04-17T03:54:54.507Z,21.36
2018-04-17T03:55:26.122Z,21.36
2018-04-17T03:55:57.740Z,21.37
2018-04-17T03:56:29.331Z,21.37
2018-04-17T03:57:00.933Z,21.37
2018-04-17T03:57:32.522Z,21.36
2018-04-17T03:58:04.101Z,21.35
2018-04-17T03:58:35.691Z,21.35
2018-04-17T03:59:07.322Z,21.35
2018-04-17T03:59:38.934Z,21.35
2018-04-17T04:00:10.553Z,21.35
2018-04-17T04:00:42.149Z,21.36
2018-04-17T04:01:13.743Z,21.34
2018-04-17T04:01:45.321Z,21.35
2018-04-17T04:02:16.915Z,21.36
2018-04-17T04:02:48.490Z,21.36
2018-04-17T04:03:20.156Z,21.35
2018-04-17T04:03:51.770Z,21.35
2018-04-17T04:04:23.359Z,21.36
2018-04-17T04:04:54.946Z,21.35
2018-04-17T04:05:26.531Z,21.36
2018-04-17T04:05:58.122Z,21.37
2018-04-17T04:06:29.726Z,21.36
2018-04-17T04:07:01.304Z,21.37
2018-04-17T04:07:32.904Z,21.38
2018-04-17T04:08:04.518Z,21.38
2018-04-17T04:08:36.163Z,21.38
2018-04-17T04:09:07.750Z,21.38
2018-04-17T04:09:39.339Z,21.36
2018-04-17T04:10:10.932Z,21.38
2018-04-17T04:10:42.547Z,21.38
2018-04-17T04:11:14.139Z,21.38
2018-04-17T04:11:45.750Z,21.38
2018-04-17T04:12:17.347Z,21.38
2018-04-17T04:12:48.936Z,21.38
2018-04-17T04:13:20.523Z,21.37
2018-04-17T04:13:52.175Z,21.36
2018-04-17T04:14:23.776Z,21.37
2018-04-17T04:14:55.390Z,21.37
2018-04-17T04:15:27.003Z,21.37
2018-04-17T04:15:58.623Z,21.37
2018-04-17T04:16:30.215Z,21.38
2018-04-17T04:17:01.822Z,21.37
2018-04-17T04:17:33.443Z,21.38
2018-04-17T04:18:05.060Z,21.39
2018-04-17T04:18:36.642Z,21.40
2018-04-17T04:19:08.311Z,21.40
2018-04-17T04:19:39.889Z,21.39
2018-04-17T04:20:11.503Z,21.38
2018-04-17T04:20:43.114Z,21.40
2018-04-17T04:21:14.730Z,21.39
2018-04-17T04:21:46.327Z,21.39
2018-04-17T04:22:17.904Z,21.39
2018-04-17T04:22:49.518Z,21.39
2018-04-17T04:23:21.138Z,21.41
2018-04-17T04:23:52.734Z,21.41
2018-04-17T04:24:24.403Z,21.40
2018-04-17T04:24:56.001Z,21.40
2018-04-17T04:25:28.126Z,21.40
2018-04-17T04:25:59.762Z,21.38
2018-04-17T04:26:31.388Z,21.38
2018-04-17T04:27:02.983Z,21.37
2018-04-17T04:27:34.594Z,21.37
2018-04-17T04:28:06.186Z,21.37
2018-04-17T04:28:37.786Z,21.37
2018-04-17T04:29:09.399Z,21.38
2018-04-17T04:29:41.051Z,21.38
2018-04-17T04:30:12.644Z,21.38
2018-04-17T04:30:44.249Z,21.41
2018-04-17T04:31:15.869Z,21.39
2018-04-17T04:31:47.460Z,21.18
2018-04-17T04:32:19.041Z,21.38
2018-04-17T04:32:50.655Z,21.38
2018-04-17T04:33:22.275Z,21.39
2018-04-17T04:33:53.896Z,21.39
2018-04-17T04:34:25.510Z,21.40
2018-04-17T04:34:57.170Z,21.40
2018-04-17T04:35:28.798Z,21.40
2018-04-17T04:36:00.419Z,21.39
2018-04-17T04:36:32.014Z,21.39
2018-04-17T04:37:03.599Z,21.39
2018-04-17T04:37:35.211Z,21.40
2018-04-17T04:38:06.828Z,21.40
2018-04-17T04:38:38.413Z,21.40
2018-04-17T04:39:09.998Z,21.39
2018-04-17T04:39:41.601Z,21.39
2018-04-17T04:40:13.275Z,21.39
2018-04-17T04:40:44.867Z,21.40
2018-04-17T04:41:16.467Z,21.39
2018-04-17T04:41:48.054Z,21.40
2018-04-17T04:42:19.657Z,21.39
2018-04-17T04:42:51.238Z,21.39
2018-04-17T04:43:22.823Z,21.42
2018-04-17T04:43:54.411Z,21.43
2018-04-17T04:44:26.073Z,21.46
2018-04-17T04:44:57.686Z,21.46
2018-04-17T04:45:29.355Z,21.43
2018-04-17T04:46:00.938Z,21.46
2018-04-17T04:46:32.542Z,21.46
2018-04-17T04:47:04.149Z,21.45
2018-04-17T04:47:35.728Z,21.46
2018-04-17T04:48:07.305Z,21.46
2018-04-17T04:48:38.891Z,21.46
2018-04-17T04:49:10.472Z,21.46
2018-04-17T04:49:42.086Z,21.46
2018-04-17T04:50:13.688Z,21.46
2018-04-17T04:50:45.430Z,21.45
2018-04-17T04:51:17.042Z,21.45
2018-04-17T04:51:48.638Z,21.46
2018-04-17T04:52:20.234Z,21.44
2018-04-17T04:52:51.828Z,21.44
2018-04-17T04:53:23.419Z,21.45
2018-04-17T04:53:55.027Z,21.46
2018-04-17T04:54:26.629Z,21.46
2018-04-17T04:54:58.249Z,21.47
2018-04-17T04:55:29.839Z,21.47
2018-04-17T04:56:01.479Z,21.47
2018-04-17T04:56:33.151Z,21.46
2018-04-17T04:57:04.767Z,21.46
2018-04-17T04:57:36.365Z,21.44
2018-04-17T04:58:07.955Z,21.45
2018-04-17T04:58:39.567Z,21.44
2018-04-17T04:59:11.173Z,21.43
2018-04-17T04:59:42.767Z,21.43
2018-04-17T05:00:14.346Z,21.44
2018-04-17T05:00:45.923Z,21.42
2018-04-17T05:01:17.587Z,21.42
2018-04-17T05:01:49.193Z,21.43
2018-04-17T05:02:20.806Z,21.42
2018-04-17T05:02:52.398Z,21.44
2018-04-17T05:03:23.981Z,21.43
2018-04-17T05:03:55.593Z,21.43
2018-04-17T05:04:27.183Z,21.43
2018-04-17T05:04:58.796Z,21.43
2018-04-17T05:05:30.411Z,21.43
2018-04-17T05:06:02.027Z,21.43
2018-04-17T05:06:33.689Z,21.40
2018-04-17T05:07:05.278Z,21.43
2018-04-17T05:07:36.871Z,21.43
2018-04-17T05:08:08.484Z,21.42
2018-04-17T05:08:40.099Z,21.42
2018-04-17T05:09:11.690Z,21.44
2018-04-17T05:09:43.268Z,21.44
2018-04-17T05:10:14.864Z,21.44
2018-04-17T05:10:46.474Z,21.43
2018-04-17T05:11:18.072Z,21.43
2018-04-17T05:11:49.715Z,21.43
2018-04-17T05:12:21.306Z,21.41
2018-04-17T05:12:52.929Z,21.40
2018-04-17T05:13:24.530Z,21.40
2018-04-17T05:13:56.124Z,21.39
2018-04-17T05:14:27.717Z,21.41
2018-04-17T05:14:59.331Z,21.41
2018-04-17T05:15:30.922Z,21.40
2018-04-17T05:16:02.535Z,21.40
2018-04-17T05:16:34.166Z,21.40
2018-04-17T05:17:05.836Z,21.40
2018-04-17T05:17:37.431Z,21.39
2018-04-17T05:18:09.033Z,21.40
2018-04-17T05:18:40.637Z,21.41
2018-04-17T05:19:12.227Z,21.42
2018-04-17T05:19:43.827Z,21.41
2018-04-17T05:20:15.419Z,21.42
2018-04-17T05:20:47.030Z,21.41
2018-04-17T05:21:18.646Z,21.42
2018-04-17T05:21:50.253Z,21.41
2018-04-17T05:22:21.913Z,21.41
2018-04-17T05:22:53.531Z,21.41
2018-04-17T05:23:25.113Z,21.41
2018-04-17T05:23:56.730Z,21.42
2018-04-17T05:24:28.327Z,21.41
2018-04-17T05:24:59.939Z,21.41
2018-04-17T05:25:31.554Z,21.41
2018-04-17T05:26:03.177Z,21.42
2018-04-17T05:26:34.767Z,21.40
2018-04-17T05:27:06.345Z,21.38
2018-04-17T05:27:38.008Z,21.39
2018-04-17T05:28:09.627Z,21.40
2018-04-17T05:28:41.234Z,21.40
2018-04-17T05:29:12.823Z,21.39
2018-04-17T05:29:44.411Z,21.40
2018-04-17T05:30:16.019Z,21.41
2018-04-17T05:30:47.627Z,21.39
2018-04-17T05:31:19.206Z,21.38
2018-04-17T05:31:50.785Z,21.36
2018-04-17T05:32:22.361Z,21.36
2018-04-17T05:32:54.003Z,21.36
2018-04-17T05:33:25.577Z,21.35
2018-04-17T05:33:57.191Z,21.35
2018-04-17T05:34:28.789Z,21.36
2018-04-17T05:35:00.365Z,21.35
2018-04-17T05:35:31.965Z,21.36
2018-04-17T05:36:03.578Z,21.35
2018-04-17T05:36:35.182Z,21.36
2018-04-17T05:37:06.780Z,21.34
2018-04-17T05:37:38.392Z,21.35
2018-04-17T05:38:10.038Z,21.35
2018-04-17T05:38:41.651Z,21.37
2018-04-17T05:39:13.243Z,21.36
2018-04-17T05:39:44.855Z,21.35
2018-04-17T05:40:16.443Z,21.36
2018-04-17T05:40:48.031Z,21.36
2018-04-17T05:41:19.646Z,21.34
2018-04-17T05:41:51.262Z,21.34
2018-04-17T05:42:22.870Z,21.34
2018-04-17T05:42:54.479Z,21.33
2018-04-17T05:43:26.164Z,21.33
2018-04-17T05:43:57.757Z,21.33
2018-04-17T05:44:29.367Z,21.36
2018-04-17T05:45:00.959Z,21.35
2018-04-17T05:45:32.551Z,21.35
2018-04-17T05:46:04.139Z,21.35
2018-04-17T05:46:35.726Z,21.34
2018-04-17T05:47:07.326Z,21.32
2018-04-17T05:47:38.928Z,21.33
2018-04-17T05:48:10.526Z,21.35
2018-04-17T05:48:42.190Z,21.37
2018-04-17T05:49:13.803Z,21.37
2018-04-17T05:49:45.388Z,21.37
2018-04-17T05:50:17.059Z,21.38
2018-04-17T05:50:48.629Z,21.37
2018-04-17T05:51:20.224Z,21.39
2018-04-17T05:51:51.825Z,21.38
2018-04-17T05:52:23.414Z,21.36
2018-04-17T05:52:55.018Z,21.35
2018-04-17T05:53:26.597Z,21.36
2018-04-17T05:53:58.225Z,21.36
2018-04-17T05:54:29.826Z,21.35
2018-04-17T05:55:01.443Z,21.35
2018-04-17T05:55:33.031Z,21.36
2018-04-17T05:56:04.619Z,21.38
2018-04-17T05:56:36.206Z,21.38
2018-04-17T05:57:07.781Z,21.38
2018-04-17T05:57:39.376Z,21.39
2018-04-17T05:58:11.146Z,21.39
2018-04-17T05:58:42.734Z,21.38
2018-04-17T05:59:14.385Z,21.38
2018-04-17T05:59:45.975Z,21.37
2018-04-17T06:00:17.579Z,21.37
2018-04-17T06:00:49.166Z,21.37
2018-04-17T06:01:20.791Z,21.37
2018-04-17T06:01:52.417Z,21.38
2018-04-17T06:02:24.010Z,21.35
2018-04-17T06:02:55.603Z,21.38
2018-04-17T06:03:27.206Z,21.38
2018-04-17T06:03:58.804Z,21.39
2018-04-17T06:04:30.472Z,21.39
2018-04-17T06:05:02.086Z,21.40
2018-04-17T06:05:33.710Z,21.43
2018-04-17T06:06:05.309Z,21.42
2018-04-17T06:06:37.060Z,21.41
2018-04-17T06:07:08.834Z,21.40
2018-04-17T06:07:40.422Z,21.41
2018-04-17T06:08:13.023Z,21.40
2018-04-17T06:08:44.625Z,21.42
2018-04-17T06:09:16.244Z,21.42
2018-04-17T06:09:47.887Z,21.41
2018-04-17T06:10:19.465Z,21.41
2018-04-17T06:10:51.051Z,21.41
2018-04-17T06:11:22.638Z,21.41
2018-04-17T06:11:54.262Z,21.41
2018-04-17T06:12:25.864Z,21.41
2018-04-17T06:12:57.455Z,21.41
2018-04-17T06:13:29.057Z,21.41
2018-04-17T06:14:00.675Z,21.41
2018-04-17T06:14:32.291Z,21.41
2018-04-17T06:15:03.951Z,21.40
2018-04-17T06:15:35.549Z,21.40
2018-04-17T06:16:07.130Z,21.41
2018-04-17T06:16:38.723Z,21.42
2018-04-17T06:17:10.321Z,21.42
2018-04-17T06:17:41.939Z,21.42
2018-04-17T06:18:13.540Z,21.40
2018-04-17T06:18:45.153Z,21.42
2018-04-17T06:19:16.760Z,21.40
2018-04-17T06:19:48.361Z,21.40
2018-04-17T06:20:20.004Z,21.40
2018-04-17T06:20:51.601Z,21.39
2018-04-17T06:21:23.191Z,21.41
2018-04-17T06:21:54.778Z,21.40
2018-04-17T06:22:26.385Z,21.40
2018-04-17T06:22:58.171Z,21.42
2018-04-17T06:23:29.749Z,21.40
2018-04-17T06:24:01.354Z,21.41
2018-04-17T06:24:32.940Z,21.42
2018-04-17T06:25:04.551Z,21.42
2018-04-17T06:25:36.203Z,21.40
2018-04-17T06:26:07.856Z,21.43
2018-04-17T06:26:39.425Z,21.44
2018-04-17T06:27:11.001Z,21.44
2018-04-17T06:27:42.592Z,21.44
2018-04-17T06:28:14.189Z,21.46
2018-04-17T06:28:45.801Z,21.51
2018-04-17T06:29:17.415Z,21.50
2018-04-17T06:29:49.025Z,21.47
2018-04-17T06:30:20.620Z,21.45
2018-04-17T06:30:52.371Z,21.46
2018-04-17T06:31:23.987Z,21.47
2018-04-17T06:31:55.602Z,21.36
2018-04-17T06:32:27.187Z,21.14
2018-04-17T06:32:58.764Z,20.92
2018-04-17T06:33:30.352Z,20.75
2018-04-17T06:34:01.954Z,20.59
2018-04-17T06:34:33.541Z,20.47
2018-04-17T06:35:05.184Z,20.36
2018-04-17T06:35:36.769Z,20.29
2018-04-17T06:36:08.435Z,20.23
2018-04-17T06:36:40.052Z,20.20
2018-04-17T06:37:11.643Z,20.14
2018-04-17T06:37:43.230Z,20.10
2018-04-17T06:38:14.819Z,20.02
2018-04-17T06:38:46.406Z,19.95
2018-04-17T06:39:17.995Z,19.90
2018-04-17T06:39:49.609Z,19.86
2018-04-17T06:40:21.199Z,19.83
2018-04-17T06:40:52.812Z,19.78
2018-04-17T06:41:24.532Z,19.73
2018-04-17T06:41:56.224Z,19.69
2018-04-17T06:42:27.831Z,19.68
2018-04-17T06:42:59.405Z,19.66
2018-04-17T06:43:30.991Z,19.63
2018-04-17T06:44:02.569Z,19.59
2018-04-17T06:44:34.186Z,19.57
2018-04-17T06:45:05.800Z,19.57
2018-04-17T06:45:37.383Z,19.54
2018-04-17T06:46:08.994Z,19.50
2018-04-17T06:46:40.637Z,19.48
2018-04-17T06:47:12.245Z,19.47